Time;durP1;ratioP1;P1;durP2;ratioP2;P2;SDS_P1;SDS_P2;PMS_P1;PMS_P2;Temp;Humidity;BMP_temperature;BMP_pressure;BME280_temperature;BME280_humidity;BME280_pressure;Samples;Min_cycle;Max_cycle;Signal;HPM_P1;HPM_P2
2022/07/11 00:02:07;;;;;;;4.25;2.20;;;13.40;99.90;;;;;;4919469;29;20130;-76
2022/07/11 00:04:34;;;;;;;2.38;1.95;;;13.40;99.90;;;;;;4920054;29;20119;-76
2022/07/11 00:07:00;;;;;;;2.03;1.90;;;13.40;99.90;;;;;;4928505;28;20721;-78
2022/07/11 00:09:26;;;;;;;2.45;2.15;;;13.40;99.90;;;;;;4920813;29;20047;-78
2022/07/11 00:11:52;;;;;;;2.33;2.13;;;13.40;99.90;;;;;;4921322;29;20822;-78
2022/07/11 00:14:19;;;;;;;2.00;1.90;;;13.50;99.90;;;;;;4922130;28;20287;-76
2022/07/11 00:16:45;;;;;;;2.75;1.77;;;13.50;99.90;;;;;;4906407;29;20072;-77
2022/07/11 00:19:11;;;;;;;4.53;1.92;;;13.60;99.90;;;;;;4919532;29;20459;-77
2022/07/11 00:21:37;;;;;;;2.97;2.20;;;13.60;99.90;;;;;;4920577;29;20579;-77
2022/07/11 00:24:09;;;;;;;2.10;1.90;;;13.60;99.90;;;;;;4920246;29;20044;-77
2022/07/11 00:26:35;;;;;;;2.28;2.08;;;13.60;99.90;;;;;;4921127;29;20027;-77
2022/07/11 00:29:01;;;;;;;1.92;1.83;;;13.50;99.90;;;;;;4919821;29;20039;-77
2022/07/11 00:31:27;;;;;;;3.83;2.13;;;13.50;99.90;;;;;;4915117;29;20054;-77
2022/07/11 00:33:54;;;;;;;2.97;2.47;;;13.50;99.90;;;;;;4917439;29;20027;-77
2022/07/11 00:36:20;;;;;;;2.50;2.30;;;13.40;99.90;;;;;;4919884;29;20028;-77
2022/07/11 00:38:46;;;;;;;2.30;1.95;;;13.30;99.90;;;;;;4914500;29;20050;-77
2022/07/11 00:41:11;;;;;;;2.65;2.20;;;13.20;99.90;;;;;;4919097;29;20090;-77
2022/07/11 00:43:39;;;;;;;3.63;2.15;;;13.20;99.90;;;;;;4897667;29;20376;-78
2022/07/11 00:46:06;;;;;;;3.50;2.00;;;13.10;99.90;;;;;;4920162;29;20280;-77
2022/07/11 00:48:32;;;;;;;2.90;2.33;;;13.10;99.90;;;;;;4924865;29;20046;-77
2022/07/11 00:50:58;;;;;;;3.55;2.25;;;13.10;99.90;;;;;;4923886;29;20090;-78
2022/07/11 00:53:25;;;;;;;2.08;1.98;;;13.10;99.90;;;;;;4923832;29;20039;-78
2022/07/11 00:55:53;;;;;;;3.45;2.42;;;13.10;99.90;;;;;;4923532;29;20447;-77
2022/07/11 00:58:19;;;;;;;2.83;1.95;;;13.10;99.90;;;;;;4920964;29;20036;-77
2022/07/11 01:00:45;;;;;;;3.03;2.20;;;13.10;99.90;;;;;;4921453;29;20038;-77
2022/07/11 01:03:12;;;;;;;3.78;2.60;;;13.10;99.90;;;;;;4923123;29;20439;-77
2022/07/11 01:05:38;;;;;;;5.47;2.80;;;13.00;99.90;;;;;;4905596;29;20111;-77
2022/07/11 01:08:04;;;;;;;2.75;2.15;;;13.00;99.90;;;;;;4923667;29;20058;-77
2022/07/11 01:10:31;;;;;;;2.90;2.33;;;13.00;99.90;;;;;;4925222;29;20083;-77
2022/07/11 01:12:57;;;;;;;3.65;2.47;;;13.00;99.90;;;;;;4924424;29;20032;-77
2022/07/11 01:15:24;;;;;;;2.90;2.15;;;13.00;99.90;;;;;;4921368;29;20096;-77
2022/07/11 01:17:51;;;;;;;4.20;2.55;;;13.00;99.90;;;;;;4906496;29;20530;-76
2022/07/11 01:20:17;;;;;;;2.65;2.45;;;13.00;99.90;;;;;;4922097;29;20043;-77
2022/07/11 01:22:56;;;;;;;2.85;2.30;;;13.00;99.90;;;;;;4921273;29;20048;-77
2022/07/11 01:25:31;;;;;;;3.03;2.58;;;12.90;99.90;;;;;;4903652;29;20035;-78
2022/07/11 01:28:03;;;;;;;2.70;2.50;;;12.90;99.90;;;;;;4916495;29;21801;-78
2022/07/11 01:30:31;;;;;;;2.60;2.40;;;12.90;99.90;;;;;;4921415;29;20039;-77
2022/07/11 01:32:57;;;;;;;2.50;2.30;;;12.80;99.90;;;;;;4908911;29;20048;-76
2022/07/11 01:35:23;;;;;;;3.05;2.38;;;12.70;99.90;;;;;;4905443;29;20061;-76
2022/07/11 01:37:49;;;;;;;4.40;2.60;;;12.70;99.90;;;;;;4922446;29;20027;-77
2022/07/11 01:40:15;;;;;;;4.50;2.85;;;12.70;99.90;;;;;;4918534;29;20024;-77
2022/07/11 01:42:41;;;;;;;3.65;2.58;;;12.60;99.90;;;;;;4923617;29;20038;-77
2022/07/11 01:45:08;;;;;;;3.35;2.67;;;12.60;99.90;;;;;;4923242;29;20038;-77
2022/07/11 01:47:34;;;;;;;3.17;2.42;;;12.60;99.90;;;;;;4922026;29;20075;-77
2022/07/11 01:50:00;;;;;;;2.50;2.22;;;12.60;99.90;;;;;;4923468;29;20517;-76
2022/07/11 01:52:26;;;;;;;3.63;2.20;;;12.60;99.90;;;;;;4918496;29;20514;-76
2022/07/11 01:54:52;;;;;;;9.82;2.78;;;12.50;99.90;;;;;;4918831;29;20031;-76
2022/07/11 01:57:18;;;;;;;2.50;2.33;;;12.50;99.90;;;;;;4914366;29;20030;-77
2022/07/11 01:59:43;;;;;;;4.28;2.35;;;12.50;99.90;;;;;;4912855;29;20645;-77
2022/07/11 02:02:09;;;;;;;3.17;2.42;;;12.40;99.90;;;;;;4917609;29;20546;-77
2022/07/11 02:04:35;;;;;;;3.75;2.88;;;12.40;99.90;;;;;;4920721;29;20111;-77
2022/07/11 02:07:00;;;;;;;3.38;2.88;;;12.40;99.90;;;;;;4918769;29;20086;-76
2022/07/11 02:09:26;;;;;;;2.60;2.25;;;12.30;99.90;;;;;;4919182;29;20043;-76
2022/07/11 02:11:52;;;;;;;4.05;2.85;;;12.30;99.90;;;;;;4921550;29;20082;-76
2022/07/11 02:14:17;;;;;;;3.13;2.53;;;12.20;99.90;;;;;;4920388;29;20511;-77
2022/07/11 02:16:43;;;;;;;2.60;2.40;;;12.20;99.90;;;;;;4918936;29;20454;-76
2022/07/11 02:19:10;;;;;;;4.68;2.80;;;12.20;99.90;;;;;;4919710;29;21321;-76
2022/07/11 02:21:36;;;;;;;2.70;2.50;;;12.10;99.90;;;;;;4915405;29;20420;-77
2022/07/11 02:24:03;;;;;;;5.50;2.70;;;12.10;99.90;;;;;;4919302;29;20676;-77
2022/07/11 02:26:28;;;;;;;3.50;2.80;;;12.10;99.90;;;;;;4918680;29;20035;-77
2022/07/11 02:28:54;;;;;;;4.53;3.10;;;12.10;99.90;;;;;;4918300;29;20164;-77
2022/07/11 02:31:20;;;;;;;6.15;3.55;;;12.20;99.90;;;;;;4919691;29;20118;-77
2022/07/11 02:33:45;;;;;;;7.68;3.70;;;12.20;99.90;;;;;;4918453;29;20028;-77
2022/07/11 02:36:11;;;;;;;7.13;3.72;;;12.20;99.90;;;;;;4908810;29;20123;-77
2022/07/11 02:38:37;;;;;;;6.80;4.13;;;12.20;99.90;;;;;;4901880;29;20050;-76
2022/07/11 02:41:03;;;;;;;6.90;4.22;;;12.20;99.90;;;;;;4914382;29;20098;-77
2022/07/11 02:43:29;;;;;;;9.63;4.07;;;12.20;99.90;;;;;;4916329;29;20140;-77
2022/07/11 02:45:55;;;;;;;6.03;3.90;;;12.20;99.90;;;;;;4914422;29;20043;-78
2022/07/11 02:48:21;;;;;;;8.27;3.75;;;12.20;99.90;;;;;;4915305;29;20039;-77
2022/07/11 02:50:47;;;;;;;3.55;3.10;;;12.10;99.90;;;;;;4917488;29;20039;-77
2022/07/11 02:53:12;;;;;;;5.00;3.30;;;12.10;99.90;;;;;;4915413;29;20036;-77
2022/07/11 02:55:38;;;;;;;4.55;3.20;;;12.10;99.90;;;;;;4917714;29;20442;-77
2022/07/11 02:58:04;;;;;;;3.53;3.15;;;12.00;99.90;;;;;;4919078;29;20210;-77
2022/07/11 03:00:30;;;;;;;4.15;3.25;;;12.10;99.90;;;;;;4921367;29;20461;-77
2022/07/11 03:02:55;;;;;;;10.93;3.30;;;12.00;99.90;;;;;;4919160;29;20031;-78
2022/07/11 03:05:21;;;;;;;3.38;3.00;;;12.00;99.90;;;;;;4916795;29;20534;-77
2022/07/11 03:07:47;;;;;;;4.55;2.92;;;12.00;99.90;;;;;;4902269;29;20062;-77
2022/07/11 03:10:13;;;;;;;4.13;2.83;;;11.90;99.90;;;;;;4917229;29;20473;-77
2022/07/11 03:12:39;;;;;;;3.08;2.88;;;11.90;99.90;;;;;;4917622;29;20032;-77
2022/07/11 03:15:06;;;;;;;6.63;2.53;;;11.90;99.90;;;;;;4918660;29;20039;-77
2022/07/11 03:17:31;;;;;;;3.00;2.70;;;11.90;99.90;;;;;;4920387;29;20028;-77
2022/07/11 03:19:57;;;;;;;2.75;2.55;;;11.80;99.90;;;;;;4922052;29;20050;-77
2022/07/11 03:22:23;;;;;;;2.53;2.33;;;11.80;99.90;;;;;;4918030;29;20051;-77
2022/07/11 03:24:50;;;;;;;3.65;2.60;;;11.70;99.90;;;;;;4918671;29;20043;-77
2022/07/11 03:27:16;;;;;;;2.90;2.60;;;11.70;99.90;;;;;;4908744;29;20860;-77
2022/07/11 03:29:42;;;;;;;4.18;2.90;;;11.70;99.90;;;;;;4911595;29;20099;-77
2022/07/11 03:32:09;;;;;;;6.85;2.85;;;11.70;99.90;;;;;;4918759;29;20027;-77
2022/07/11 03:34:35;;;;;;;3.75;2.60;;;11.60;99.90;;;;;;4916633;29;20154;-77
2022/07/11 03:37:01;;;;;;;2.95;2.58;;;11.60;99.90;;;;;;4913724;29;20142;-77
2022/07/11 03:39:27;;;;;;;3.35;3.08;;;11.60;99.90;;;;;;4917697;29;20419;-77
2022/07/11 03:41:53;;;;;;;3.00;2.70;;;11.70;99.90;;;;;;4918276;29;20035;-77
2022/07/11 03:44:19;;;;;;;3.83;3.30;;;11.70;99.90;;;;;;4916867;29;20166;-77
2022/07/11 03:46:45;;;;;;;4.72;3.22;;;11.70;99.90;;;;;;4916356;29;20488;-77
2022/07/11 03:49:11;;;;;;;4.72;2.80;;;11.70;99.90;;;;;;4920192;29;20074;-77
2022/07/11 03:51:37;;;;;;;5.95;5.07;;;11.70;99.90;;;;;;4916900;29;20028;-76
2022/07/11 03:54:04;;;;;;;3.47;3.05;;;11.70;99.90;;;;;;4919302;29;20032;-76
2022/07/11 03:56:29;;;;;;;4.53;3.05;;;11.70;99.90;;;;;;4918595;29;20032;-77
2022/07/11 03:58:55;;;;;;;3.17;2.63;;;11.70;99.90;;;;;;4919535;29;20477;-77
2022/07/11 04:01:21;;;;;;;4.38;2.75;;;11.70;99.90;;;;;;4917604;29;20690;-76
2022/07/11 04:03:47;;;;;;;2.80;2.60;;;11.70;99.90;;;;;;4912774;29;20594;-77
2022/07/11 04:06:14;;;;;;;2.40;2.13;;;11.70;99.90;;;;;;4915016;29;20039;-77
2022/07/11 04:08:40;;;;;;;7.50;3.45;;;11.60;99.90;;;;;;4917297;29;20492;-77
2022/07/11 04:11:05;;;;;;;8.88;4.32;;;11.60;99.90;;;;;;4916653;29;20040;-77
2022/07/11 04:13:31;;;;;;;11.65;5.10;;;11.60;99.90;;;;;;4916564;29;20728;-77
2022/07/11 04:15:57;;;;;;;10.20;4.80;;;11.50;99.90;;;;;;4917984;29;20530;-77
2022/07/11 04:18:23;;;;;;;9.55;4.95;;;11.50;99.90;;;;;;4915768;29;20034;-77
2022/07/11 04:20:49;;;;;;;7.75;4.82;;;11.50;99.90;;;;;;4916397;29;20031;-77
2022/07/11 04:23:15;;;;;;;9.68;5.07;;;11.50;99.90;;;;;;4915757;29;20548;-78
2022/07/11 04:25:42;;;;;;;10.23;4.45;;;11.50;99.90;;;;;;4916424;29;20115;-77
2022/07/11 04:28:07;;;;;;;8.10;4.32;;;11.50;99.90;;;;;;4900152;29;20091;-77
2022/07/11 04:30:33;;;;;;;5.68;3.85;;;11.60;99.90;;;;;;4917936;29;20232;-77
2022/07/11 04:32:59;;;;;;;5.10;3.67;;;11.60;99.90;;;;;;4915020;29;20083;-77
2022/07/11 04:35:27;;;;;;;4.35;3.70;;;11.70;99.90;;;;;;4914719;29;20031;-78
2022/07/11 04:37:53;;;;;;;4.50;3.20;;;11.80;99.90;;;;;;4898640;29;20035;-77
2022/07/11 04:40:20;;;;;;;3.30;3.00;;;11.90;99.90;;;;;;4919325;29;20414;-77
2022/07/11 04:42:46;;;;;;;5.57;3.28;;;11.90;99.90;;;;;;4917775;29;20023;-78
2022/07/11 04:45:12;;;;;;;5.57;3.05;;;11.90;99.90;;;;;;4919201;29;20038;-76
2022/07/11 04:47:38;;;;;;;3.75;2.90;;;11.90;99.90;;;;;;4918637;29;20036;-78
2022/07/11 04:50:04;;;;;;;5.70;4.43;;;11.90;99.90;;;;;;4919867;29;20431;-78
2022/07/11 04:52:30;;;;;;;4.57;3.17;;;11.90;99.90;;;;;;4921871;29;20035;-78
2022/07/11 04:54:55;;;;;;;2.67;2.47;;;11.90;99.90;;;;;;4916429;29;20051;-78
2022/07/11 04:57:21;;;;;;;3.08;2.70;;;11.90;99.90;;;;;;4912753;29;20038;-77
2022/07/11 04:59:47;;;;;;;4.15;2.75;;;11.90;99.90;;;;;;4923637;29;20479;-77
2022/07/11 05:02:12;;;;;;;3.45;3.00;;;12.00;99.90;;;;;;4913243;29;20413;-78
2022/07/11 05:04:38;;;;;;;3.83;2.88;;;12.00;99.90;;;;;;4917208;29;20035;-78
2022/07/11 05:07:04;;;;;;;4.63;3.28;;;12.00;99.90;;;;;;4916078;29;20109;-77
2022/07/11 05:09:30;;;;;;;3.25;2.95;;;12.10;99.90;;;;;;4917839;29;20043;-78
2022/07/11 05:11:56;;;;;;;3.05;2.85;;;12.20;99.90;;;;;;4915958;29;20042;-78
2022/07/11 05:14:22;;;;;;;3.00;2.55;;;12.30;99.90;;;;;;4914193;29;20028;-78
2022/07/11 05:16:47;;;;;;;3.08;2.63;;;12.40;99.90;;;;;;4917983;29;20201;-77
2022/07/11 05:19:13;;;;;;;3.80;2.53;;;12.50;99.90;;;;;;4919978;29;20028;-77
2022/07/11 05:21:39;;;;;;;2.85;2.50;;;12.50;99.90;;;;;;4915184;29;20663;-77
2022/07/11 05:24:05;;;;;;;3.78;2.72;;;12.70;99.90;;;;;;4915732;29;20443;-77
2022/07/11 05:26:30;;;;;;;3.08;2.55;;;12.80;99.90;;;;;;4914523;29;20095;-78
2022/07/11 05:28:56;;;;;;;4.15;2.75;;;12.80;99.90;;;;;;4917795;29;20159;-78
2022/07/11 05:31:22;;;;;;;3.80;2.50;;;12.90;99.90;;;;;;4912026;29;20110;-76
2022/07/11 05:33:48;;;;;;;2.60;2.20;;;12.90;99.90;;;;;;4913382;29;20693;-76
2022/07/11 05:36:14;;;;;;;2.90;2.60;;;12.90;99.90;;;;;;4913416;29;20047;-76
2022/07/11 05:38:39;;;;;;;4.22;3.20;;;13.00;99.90;;;;;;4918082;29;20162;-77
2022/07/11 05:41:05;;;;;;;2.75;2.50;;;13.00;99.90;;;;;;4910568;29;20035;-77
2022/07/11 05:43:31;;;;;;;4.95;2.45;;;13.00;99.90;;;;;;4922857;29;20046;-77
2022/07/11 05:45:56;;;;;;;2.58;2.20;;;13.10;99.90;;;;;;4912055;29;20061;-77
2022/07/11 05:48:22;;;;;;;2.85;2.65;;;13.20;99.90;;;;;;4915319;29;20044;-77
2022/07/11 05:50:47;;;;;;;2.67;2.42;;;13.20;99.90;;;;;;4920474;29;20036;-77
2022/07/11 05:53:14;;;;;;;25.85;15.55;;;13.20;99.90;;;;;;4919819;29;20384;-77
2022/07/11 05:55:40;;;;;;;88.32;49.50;;;13.30;99.90;;;;;;4914380;29;20130;-77
2022/07/11 05:58:06;;;;;;;34.97;21.05;;;13.40;99.90;;;;;;4916176;29;20072;-77
2022/07/11 06:00:32;;;;;;;10.60;6.28;;;13.40;99.90;;;;;;4917274;29;20032;-77
2022/07/11 06:02:57;;;;;;;8.52;5.88;;;13.50;99.90;;;;;;4909979;29;20635;-76
2022/07/11 06:05:23;;;;;;;5.68;4.00;;;13.60;99.90;;;;;;4912600;29;20284;-76
2022/07/11 06:10:33;;;;;;;4.93;3.65;;;13.80;99.90;;;;;;4906948;29;20173;-81
2022/07/11 06:12:59;;;;;;;4.28;3.33;;;14.00;99.90;;;;;;4905117;29;20150;-81
2022/07/11 06:15:24;;;;;;;2.58;2.38;;;14.10;99.90;;;;;;4914345;29;20307;-81
2022/07/11 06:17:50;;;;;;;2.60;1.98;;;14.10;99.90;;;;;;4914958;29;20199;-80
2022/07/11 06:20:16;;;;;;;2.92;2.72;;;14.30;99.90;;;;;;4920097;29;20079;-81
2022/07/11 06:22:42;;;;;;;2.05;1.95;;;14.40;99.90;;;;;;4919111;28;20395;-81
2022/07/11 06:25:09;;;;;;;2.60;1.92;;;14.50;99.90;;;;;;4918682;29;20036;-80
2022/07/11 06:27:35;;;;;;;2.60;1.90;;;14.70;99.90;;;;;;4912069;29;20344;-78
2022/07/11 06:30:01;;;;;;;2.08;1.90;;;14.70;99.90;;;;;;4905303;29;20047;-81
2022/07/11 06:32:28;;;;;;;1.95;1.85;;;14.90;99.90;;;;;;4909506;29;20078;-83
2022/07/11 06:34:53;;;;;;;3.30;2.22;;;15.00;99.90;;;;;;4905198;29;20419;-76
2022/07/11 06:37:19;;;;;;;4.22;2.90;;;15.00;99.90;;;;;;4904988;29;20581;-76
2022/07/11 06:39:45;;;;;;;2.88;2.30;;;15.10;99.90;;;;;;4907337;29;20042;-75
2022/07/11 06:42:10;;;;;;;4.15;2.10;;;15.20;99.90;;;;;;4910336;29;20743;-75
2022/07/11 06:44:36;;;;;;;2.10;1.90;;;15.30;99.90;;;;;;4907436;29;20042;-76
2022/07/11 06:47:02;;;;;;;2.40;2.30;;;15.40;99.90;;;;;;4920330;29;20558;-76
2022/07/11 06:49:27;;;;;;;2.33;1.83;;;15.50;99.90;;;;;;4914337;29;20610;-76
2022/07/11 06:51:53;;;;;;;3.08;2.85;;;15.70;99.90;;;;;;4905834;29;20028;-76
2022/07/11 06:54:19;;;;;;;2.20;1.70;;;15.80;99.90;;;;;;4904517;29;20032;-75
2022/07/11 06:56:44;;;;;;;4.05;1.92;;;15.90;99.90;;;;;;4920797;29;20407;-76
2022/07/11 06:59:10;;;;;;;1.70;1.60;;;16.00;99.90;;;;;;4906787;29;20035;-76
2022/07/11 07:01:36;;;;;;;3.13;1.50;;;16.10;99.90;;;;;;4920537;29;20118;-76
2022/07/11 07:04:02;;;;;;;1.60;1.48;;;16.20;99.90;;;;;;4944159;23;20074;-76
2022/07/11 07:06:28;;;;;;;2.58;1.20;;;16.30;99.90;;;;;;4940051;29;20027;-76
2022/07/11 07:08:54;;;;;;;3.05;1.60;;;16.40;99.90;;;;;;4936723;28;20102;-76
2022/07/11 07:11:19;;;;;;;2.15;1.45;;;16.50;99.90;;;;;;4936254;29;20035;-76
2022/07/11 07:13:49;;;;;;;1.88;1.42;;;16.70;99.90;;;;;;4939754;28;20099;-75
2022/07/11 07:16:15;;;;;;;2.13;1.40;;;16.80;99.90;;;;;;4929060;28;20038;-76
2022/07/11 07:18:43;;;;;;;1.50;1.40;;;17.10;99.90;;;;;;4937789;28;20458;-76
2022/07/11 07:21:08;;;;;;;3.85;1.45;;;17.30;99.90;;;;;;4930803;28;20030;-76
2022/07/11 07:23:34;;;;;;;2.47;1.10;;;17.40;99.90;;;;;;4931917;28;20032;-77
2022/07/11 07:26:00;;;;;;;1.17;1.10;;;17.50;99.90;;;;;;4936531;28;20075;-78
2022/07/11 07:28:28;;;;;;;1.67;1.35;;;17.80;99.90;;;;;;4939145;29;20042;-78
2022/07/11 07:30:54;;;;;;;5.22;1.20;;;17.90;99.90;;;;;;4941454;28;20284;-78
2022/07/11 07:33:20;;;;;;;2.53;1.02;;;18.20;99.90;;;;;;4937545;28;20335;-78
2022/07/11 07:35:45;;;;;;;3.00;1.13;;;18.80;99.90;;;;;;4930029;28;20036;-76
2022/07/11 07:38:12;;;;;;;1.95;0.88;;;20.20;99.90;;;;;;4935225;28;20511;-77
2022/07/11 07:40:38;;;;;;;1.88;0.73;;;22.20;99.90;;;;;;4938217;28;20332;-77
2022/07/11 07:43:04;;;;;;;1.58;0.70;;;23.30;99.90;;;;;;4937843;28;20029;-77
2022/07/11 07:45:29;;;;;;;1.80;1.08;;;22.80;99.90;;;;;;4932323;29;20141;-77
2022/07/11 07:47:55;;;;;;;1.90;1.08;;;24.00;99.90;;;;;;4933662;28;20027;-78
2022/07/11 07:50:22;;;;;;;0.57;0.55;;;28.20;82.70;;;;;;4937880;28;20629;-78
2022/07/11 07:52:47;;;;;;;0.90;0.90;;;31.00;56.80;;;;;;4941898;28;20519;-80
2022/07/11 07:55:13;;;;;;;2.55;0.50;;;33.00;49.40;;;;;;4940272;28;20031;-79
2022/07/11 07:57:39;;;;;;;3.38;0.75;;;35.60;42.60;;;;;;4933847;29;20035;-78
2022/07/11 08:02:50;;;;;;;0.60;0.60;;;37.20;34.50;;;;;;4939150;29;20077;-78
2022/07/11 08:05:17;;;;;;;0.85;0.50;;;38.80;34.00;;;;;;4935428;28;20082;-78
2022/07/11 08:07:43;;;;;;;2.25;0.60;;;40.70;30.50;;;;;;4934797;28;20030;-78
2022/07/11 08:10:09;;;;;;;0.77;0.57;;;40.50;28.80;;;;;;4933916;28;20039;-79
2022/07/11 08:12:35;;;;;;;1.40;0.65;;;41.90;29.90;;;;;;4932088;28;20558;-79
2022/07/11 08:15:00;;;;;;;1.95;0.50;;;42.10;29.10;;;;;;4931290;28;20058;-79
2022/07/11 08:17:26;;;;;;;0.80;0.40;;;43.00;28.50;;;;;;4944373;29;20042;-78
2022/07/11 08:19:52;;;;;;;3.00;0.60;;;43.40;27.80;;;;;;4940109;29;20046;-79
2022/07/11 08:22:17;;;;;;;1.13;0.50;;;43.30;27.90;;;;;;4937482;29;20031;-79
2022/07/11 08:24:43;;;;;;;0.47;0.47;;;43.40;28.20;;;;;;4932994;29;20174;-80
2022/07/11 08:27:09;;;;;;;1.23;0.80;;;42.60;27.40;;;;;;4931545;28;20581;-79
2022/07/11 08:29:35;;;;;;;2.30;0.70;;;43.10;28.30;;;;;;4934221;28;20039;-78
2022/07/11 08:32:01;;;;;;;1.52;0.60;;;43.40;28.90;;;;;;4920657;28;20035;-79
2022/07/11 08:34:26;;;;;;;3.40;0.40;;;43.60;27.30;;;;;;4937285;29;20031;-78
2022/07/11 08:36:52;;;;;;;1.38;0.60;;;43.40;29.00;;;;;;4932532;28;20322;-79
2022/07/11 08:39:18;;;;;;;0.50;0.40;;;45.20;29.40;;;;;;4928660;28;20498;-79
2022/07/11 08:41:47;;;;;;;1.52;0.60;;;45.30;27.50;;;;;;4946443;28;20194;-78
2022/07/11 08:44:13;;;;;;;1.75;0.85;;;44.90;30.00;;;;;;4937129;28;20035;-78
2022/07/11 08:46:43;;;;;;;1.77;0.80;;;44.90;28.40;;;;;;4939923;29;20394;-80
2022/07/11 08:49:11;;;;;;;3.20;0.80;;;45.60;27.10;;;;;;4935085;29;20141;-79
2022/07/11 08:51:37;;;;;;;2.38;1.00;;;44.70;28.70;;;;;;4936525;29;20038;-79
2022/07/11 08:54:03;;;;;;;1.23;0.60;;;45.00;27.20;;;;;;4940310;28;20035;-78
2022/07/11 08:56:30;;;;;;;1.00;0.60;;;43.90;28.10;;;;;;4934830;28;20062;-79
2022/07/11 08:58:59;;;;;;;1.70;0.95;;;43.60;28.40;;;;;;4933373;28;20082;-79
2022/07/11 09:01:46;;;;;;;2.25;1.02;;;43.90;28.10;;;;;;4934079;28;20165;-79
2022/07/11 09:04:13;;;;;;;1.75;0.95;;;43.40;29.30;;;;;;4934537;29;20081;-78
2022/07/11 09:06:39;;;;;;;2.38;0.65;;;43.60;27.80;;;;;;4913194;29;20032;-78
2022/07/11 09:09:05;;;;;;;2.13;0.88;;;42.60;29.90;;;;;;4908634;29;20470;-79
2022/07/11 09:11:55;;;;;;;5.30;0.90;;;42.90;28.90;;;;;;4921050;29;20031;-79
2022/07/11 09:14:28;;;;;;;4.13;0.88;;;42.40;28.80;;;;;;4915619;29;20035;-78
2022/07/11 09:17:02;;;;;;;4.80;0.88;;;43.10;29.00;;;;;;4922927;29;20428;-79
2022/07/11 09:19:31;;;;;;;1.95;0.82;;;42.30;26.80;;;;;;4915714;29;20066;-78
2022/07/11 09:27:46;;;;;;;1.67;0.63;;;41.10;28.40;;;;;;4911278;29;20425;-79
2022/07/11 09:30:43;;;;;;;2.75;1.10;;;41.70;30.30;;;;;;4923999;29;20146;-80
2022/07/11 09:33:12;;;;;;;2.70;1.30;;;42.10;28.00;;;;;;4915277;29;20028;-78
2022/07/11 09:35:45;;;;;;;2.77;0.93;;;41.80;29.90;;;;;;4915912;29;20051;-80
2022/07/11 09:38:13;;;;;;;2.75;1.00;;;41.80;28.30;;;;;;4896456;29;20365;-81
2022/07/11 09:40:43;;;;;;;1.48;0.60;;;42.10;30.30;;;;;;4920733;29;20055;-80
2022/07/11 09:43:09;;;;;;;1.98;0.63;;;42.00;29.80;;;;;;4914056;29;21097;-81
2022/07/11 09:45:35;;;;;;;0.60;0.60;;;42.30;28.30;;;;;;4916183;29;20098;-79
2022/07/11 09:48:12;;;;;;;1.70;0.50;;;41.90;28.80;;;;;;4917040;29;20032;-80
2022/07/11 09:50:39;;;;;;;1.20;0.50;;;40.90;30.70;;;;;;4913503;29;20044;-79
2022/07/11 09:53:11;;;;;;;3.55;0.50;;;41.40;30.90;;;;;;4915353;29;20028;-79
2022/07/11 09:55:48;;;;;;;2.03;0.50;;;40.00;28.80;;;;;;4914396;29;20463;-79
2022/07/11 09:58:15;;;;;;;2.55;0.70;;;39.50;31.50;;;;;;4918909;29;20036;-80
2022/07/11 10:00:43;;;;;;;1.77;0.50;;;40.20;29.60;;;;;;4917536;29;20039;-82
2022/07/11 10:03:11;;;;;;;0.73;0.50;;;38.90;28.50;;;;;;4919181;28;20035;-81
2022/07/11 10:05:37;;;;;;;1.40;0.50;;;38.80;32.10;;;;;;4929171;28;20042;-81
2022/07/11 10:08:04;;;;;;;3.85;0.80;;;38.90;29.00;;;;;;4933466;28;20027;-80
2022/07/11 10:10:32;;;;;;;1.42;0.43;;;39.50;34.70;;;;;;4933225;28;20039;-72
2022/07/11 10:12:58;;;;;;;1.02;0.63;;;40.20;32.20;;;;;;4934017;28;20034;-72
2022/07/11 10:15:35;;;;;;;1.33;0.40;;;39.60;28.90;;;;;;4932027;28;20057;-72
2022/07/11 10:18:06;;;;;;;1.05;0.30;;;39.10;28.70;;;;;;4926057;28;20447;-71
2022/07/11 10:20:57;;;;;;;3.25;0.65;;;37.90;32.70;;;;;;4926771;28;20276;-72
2022/07/11 10:23:54;;;;;;;1.65;0.60;;;38.80;34.80;;;;;;4930830;28;20042;-72
2022/07/11 10:26:46;;;;;;;3.08;0.70;;;39.00;33.70;;;;;;4933965;28;20050;-72
2022/07/11 10:29:26;;;;;;;4.95;0.60;;;39.40;30.80;;;;;;4936362;28;20028;-71
2022/07/11 10:32:05;;;;;;;1.05;0.55;;;39.10;33.90;;;;;;4933824;28;20513;-71
2022/07/11 10:34:30;;;;;;;1.27;0.57;;;39.60;31.40;;;;;;4938337;29;20173;-72
2022/07/11 10:37:01;;;;;;;1.50;0.52;;;39.20;31.40;;;;;;4932726;28;20415;-71
2022/07/11 10:53:53;;;;;;;1.65;0.50;;;39.60;30.00;;;;;;5012080;27;1311949;-76
2022/07/11 10:56:34;;;;;;;1.15;0.77;;;38.40;33.90;;;;;;5054237;28;20295;-77
2022/07/11 10:59:19;;;;;;;2.92;0.65;;;37.90;32.70;;;;;;5055972;28;20029;-76
2022/07/11 11:02:03;;;;;;;2.58;0.63;;;37.70;33.90;;;;;;5055955;28;20430;-73
2022/07/11 11:04:47;;;;;;;4.05;0.73;;;37.40;30.90;;;;;;5057474;28;20032;-74
2022/07/11 11:07:35;;;;;;;0.85;0.65;;;37.90;37.10;;;;;;5057468;28;20059;-73
2022/07/11 11:10:26;;;;;;;2.25;0.80;;;37.80;32.00;;;;;;5060858;28;20032;-75
2022/07/11 11:13:09;;;;;;;0.50;0.50;;;38.00;31.30;;;;;;5059349;28;20097;-76
2022/07/11 11:15:45;;;;;;;1.13;0.60;;;38.20;33.40;;;;;;5056516;28;20716;-75
2022/07/11 11:18:25;;;;;;;2.55;0.68;;;38.20;33.00;;;;;;5053706;28;20073;-76
2022/07/11 11:21:02;;;;;;;3.72;0.80;;;38.00;31.00;;;;;;5057685;28;20515;-74
2022/07/11 11:23:35;;;;;;;2.35;0.63;;;37.70;33.20;;;;;;5067571;28;20384;-74
2022/07/11 11:26:11;;;;;;;1.73;1.05;;;37.00;32.30;;;;;;5063410;28;20187;-74
2022/07/11 11:28:53;;;;;;;1.40;0.63;;;37.40;32.50;;;;;;5067360;28;20067;-74
2022/07/11 11:31:20;;;;;;;1.73;0.90;;;36.70;36.00;;;;;;5063337;28;20035;-73
2022/07/11 11:33:47;;;;;;;0.60;0.60;;;36.70;33.10;;;;;;5061402;28;20372;-74
2022/07/11 11:36:16;;;;;;;2.90;0.70;;;36.70;38.40;;;;;;5056381;28;20111;-73
2022/07/11 11:38:44;;;;;;;2.60;0.68;;;36.40;36.00;;;;;;5061190;28;20337;-73
2022/07/11 11:41:10;;;;;;;1.23;0.57;;;35.80;33.40;;;;;;5058915;28;20144;-73
2022/07/11 11:43:36;;;;;;;2.38;0.65;;;35.00;33.90;;;;;;5058787;28;20483;-74
2022/07/11 11:46:02;;;;;;;1.27;0.68;;;34.40;41.20;;;;;;5057442;28;20031;-73
2022/07/11 11:48:37;;;;;;;2.83;0.70;;;34.10;39.80;;;;;;5063931;28;20036;-74
2022/07/11 11:51:07;;;;;;;2.28;0.70;;;33.90;40.80;;;;;;5049338;28;20028;-74
2022/07/11 11:53:41;;;;;;;2.20;0.60;;;34.00;39.50;;;;;;5063809;28;20059;-73
2022/07/11 11:56:29;;;;;;;1.10;0.90;;;34.00;42.70;;;;;;5051834;28;20081;-73
2022/07/11 11:59:03;;;;;;;0.93;0.70;;;34.00;37.90;;;;;;5056795;28;20037;-74
2022/07/11 12:01:37;;;;;;;3.55;1.23;;;33.70;37.70;;;;;;5058463;28;20111;-74
2022/07/11 12:04:11;;;;;;;2.20;0.80;;;33.50;44.40;;;;;;5039589;28;20749;-73
2022/07/11 12:06:37;;;;;;;1.55;0.70;;;33.40;41.30;;;;;;5047031;28;20048;-75
2022/07/11 12:09:06;;;;;;;3.13;0.98;;;33.30;49.10;;;;;;5048779;28;20060;-75
2022/07/11 12:11:33;;;;;;;1.23;0.88;;;33.40;44.60;;;;;;5049502;28;20175;-74
2022/07/11 12:14:00;;;;;;;2.33;0.77;;;33.40;44.50;;;;;;5046709;28;20111;-74
2022/07/11 12:16:42;;;;;;;2.92;1.00;;;33.10;42.20;;;;;;5049546;28;20906;-74
2022/07/11 12:19:18;;;;;;;2.17;0.60;;;32.70;39.40;;;;;;5051336;28;20021;-73
2022/07/11 12:21:46;;;;;;;1.48;0.60;;;32.70;45.00;;;;;;5050416;28;20211;-74
2022/07/11 12:24:18;;;;;;;1.98;0.80;;;32.50;40.30;;;;;;5034168;28;20143;-74
2022/07/11 12:26:44;;;;;;;1.55;0.60;;;32.20;42.60;;;;;;5050064;28;20098;-73
2022/07/11 12:29:12;;;;;;;1.40;0.60;;;32.40;45.90;;;;;;5046861;28;20500;-74
2022/07/11 12:31:45;;;;;;;3.25;0.85;;;32.50;49.80;;;;;;5055612;28;20758;-73
2022/07/11 12:34:12;;;;;;;0.50;0.50;;;32.80;44.80;;;;;;5056514;28;20158;-73
2022/07/11 12:36:37;;;;;;;0.60;0.60;;;32.80;46.70;;;;;;5057568;28;20069;-76
2022/07/11 12:39:04;;;;;;;1.90;0.82;;;33.00;39.50;;;;;;5056711;28;20035;-75
2022/07/11 12:41:31;;;;;;;0.93;0.60;;;32.80;41.80;;;;;;5052755;28;20032;-74
2022/07/11 12:46:42;;;;;;;0.73;0.73;;;32.30;40.60;;;;;;5051194;28;20078;-74
2022/07/11 12:49:10;;;;;;;1.92;0.80;;;32.20;43.70;;;;;;5052084;28;20082;-73
2022/07/11 12:51:41;;;;;;;1.08;0.70;;;32.10;48.90;;;;;;5052670;28;20025;-74
2022/07/11 12:54:12;;;;;;;1.08;0.90;;;32.50;43.30;;;;;;5052604;28;20532;-74
2022/07/11 12:56:38;;;;;;;1.98;0.98;;;32.60;40.30;;;;;;5053078;28;20530;-74
2022/07/11 12:59:05;;;;;;;1.38;0.50;;;32.30;44.90;;;;;;5049916;28;20033;-74
2022/07/11 13:01:31;;;;;;;0.70;0.70;;;32.30;42.40;;;;;;5047287;28;20043;-74
2022/07/11 13:03:58;;;;;;;1.23;0.50;;;31.90;42.40;;;;;;5049687;28;20111;-75
2022/07/11 13:09:09;;;;;;;1.92;0.70;;;31.80;51.40;;;;;;5059276;28;20051;-74
2022/07/11 13:11:35;;;;;;;2.40;0.90;;;32.00;41.80;;;;;;5048662;28;20040;-77
2022/07/11 13:14:01;;;;;;;1.35;0.80;;;31.90;41.00;;;;;;5029061;28;20633;-77
2022/07/11 13:16:27;;;;;;;4.13;0.70;;;31.70;41.00;;;;;;5048816;28;20024;-76
2022/07/11 13:18:53;;;;;;;1.10;1.00;;;31.60;41.80;;;;;;5051553;28;20041;-76
2022/07/11 13:21:19;;;;;;;1.17;0.60;;;31.80;49.60;;;;;;5037556;28;20028;-77